LKKB

Kbely Air Base Airport

Prague, Czech Republic
METAR LKKB 250200Z 00000KT CAVOK 15/13 Q1019
Observed Flight Rules
May-25 @ 02:00 UTC (58 minutes ago) Visual Flight Rules
Visibility Clouds
10,000+ meters
  • Clear skies
Temperatures Readings
Current 15°C / 59°F
Dewpoint 13°C / 55°F
Humidity 88%
Altimeter 30.09" Hg
Pressure 1019 hPa
Elevation 286
METAR LKKB 250200Z 00000KT CAVOK 15/13 Q1019
Observed Flight Rules
May-25 @ 02:00 UTC
(58 minutes ago)
VFR
Clouds
  • Clear skies
Temperature Dewpoint
15°C / 59°F 13°C / 55°F
Humidity Altimeter Pressure
88% 30.09" Hg 1019 hPa